Time;durP1;ratioP1;P1;durP2;ratioP2;P2;SDS_P1;SDS_P2;PMS_P1;PMS_P2;Temp;Humidity;BMP_temperature;BMP_pressure;BME280_temperature;BME280_humidity;BME280_pressure;Samples;Min_cycle;Max_cycle;Signal;HPM_P1;HPM_P2
2024/02/05 00:00:40;;;;;;;20.20;10.00;;;9.80;99.90;;;;;;5069449;28;20017;-52
2024/02/05 00:03:05;;;;;;;20.85;11.45;;;9.80;99.90;;;;;;5069029;28;20028;-50
2024/02/05 00:05:31;;;;;;;25.35;12.00;;;9.80;99.90;;;;;;5069199;28;20085;-52
2024/02/05 00:07:56;;;;;;;22.45;10.52;;;9.80;99.90;;;;;;5068902;28;20382;-54
2024/02/05 00:10:23;;;;;;;18.58;10.25;;;9.80;99.90;;;;;;5071160;28;20063;-53
2024/02/05 00:12:48;;;;;;;21.98;11.07;;;9.80;99.90;;;;;;5071776;28;20055;-54
2024/02/05 00:15:14;;;;;;;24.40;11.85;;;9.80;99.90;;;;;;5070104;28;20094;-53
2024/02/05 00:17:40;;;;;;;24.08;12.02;;;9.80;99.90;;;;;;5073218;28;20025;-50
2024/02/05 00:20:07;;;;;;;25.83;11.82;;;9.80;99.90;;;;;;5074554;28;20429;-52
2024/02/05 00:22:32;;;;;;;23.05;11.18;;;9.80;99.90;;;;;;5062529;28;20048;-54
2024/02/05 00:24:58;;;;;;;21.80;11.77;;;9.80;99.90;;;;;;5069456;28;20127;-53
2024/02/05 00:27:23;;;;;;;28.48;12.90;;;9.80;99.90;;;;;;5069101;28;20031;-53
2024/02/05 00:29:49;;;;;;;21.20;10.93;;;9.80;99.90;;;;;;5069229;28;20020;-53
2024/02/05 00:32:15;;;;;;;26.52;12.30;;;9.80;99.90;;;;;;5068770;28;20402;-53
2024/02/05 00:34:40;;;;;;;28.45;13.50;;;9.80;99.90;;;;;;5078819;28;20031;-54
2024/02/05 00:37:06;;;;;;;24.60;12.68;;;9.80;99.90;;;;;;5069594;28;20451;-54
2024/02/05 00:39:31;;;;;;;27.17;13.52;;;9.80;99.90;;;;;;5068871;28;20036;-54
2024/02/05 00:41:57;;;;;;;24.83;12.40;;;9.80;99.90;;;;;;5072403;28;20146;-54
2024/02/05 00:44:22;;;;;;;27.00;13.40;;;9.80;99.90;;;;;;5068805;28;20024;-53
2024/02/05 00:46:48;;;;;;;24.58;13.80;;;9.80;99.90;;;;;;5068835;28;20477;-53
2024/02/05 00:49:14;;;;;;;26.25;13.60;;;9.80;99.90;;;;;;5073845;28;20021;-53
2024/02/05 00:51:39;;;;;;;25.25;13.32;;;9.80;99.90;;;;;;5071457;28;20025;-53
2024/02/05 00:54:05;;;;;;;24.75;12.15;;;9.80;99.90;;;;;;5071854;28;20031;-53
2024/02/05 00:56:33;;;;;;;21.67;12.18;;;9.80;99.90;;;;;;5068391;28;20036;-54
2024/02/05 00:58:59;;;;;;;20.10;11.60;;;9.80;99.90;;;;;;5068552;28;20035;-51
2024/02/05 01:01:25;;;;;;;31.92;13.20;;;9.80;99.90;;;;;;5068137;28;20036;-53
2024/02/05 01:03:50;;;;;;;26.27;11.40;;;9.80;99.90;;;;;;5072429;28;20092;-52
2024/02/05 01:06:16;;;;;;;19.38;10.13;;;9.80;99.90;;;;;;5068128;28;20392;-52
2024/02/05 01:08:41;;;;;;;27.60;11.43;;;9.80;99.90;;;;;;5070487;28;20017;-53
2024/02/05 01:11:07;;;;;;;25.30;11.60;;;9.80;99.90;;;;;;5072193;28;20028;-54
2024/02/05 01:13:32;;;;;;;25.70;11.63;;;9.80;99.90;;;;;;5067545;28;20454;-54
2024/02/05 01:15:59;;;;;;;19.92;10.55;;;9.80;99.90;;;;;;5068126;28;20039;-54
2024/02/05 01:18:25;;;;;;;23.42;10.60;;;9.80;99.90;;;;;;5068285;28;20441;-54
2024/02/05 01:20:50;;;;;;;27.75;11.10;;;9.80;99.90;;;;;;5068543;28;20029;-54
2024/02/05 01:23:16;;;;;;;18.45;10.52;;;9.80;99.90;;;;;;5067896;28;20047;-53
2024/02/05 01:25:43;;;;;;;22.80;9.93;;;9.80;99.90;;;;;;5068010;28;20020;-53
2024/02/05 01:28:09;;;;;;;22.67;10.20;;;9.80;99.90;;;;;;5068238;28;20139;-53
2024/02/05 01:30:34;;;;;;;20.73;10.68;;;9.80;99.90;;;;;;5067788;28;20098;-53
2024/02/05 01:33:01;;;;;;;19.73;10.38;;;9.80;99.90;;;;;;5072094;28;20363;-53
2024/02/05 01:35:26;;;;;;;27.13;10.85;;;9.80;99.90;;;;;;5071996;28;20048;-53
2024/02/05 01:37:52;;;;;;;19.80;10.48;;;9.80;99.90;;;;;;5066344;28;20298;-52
2024/02/05 01:40:18;;;;;;;25.92;11.00;;;9.80;99.90;;;;;;5072992;28;20361;-54
2024/02/05 01:42:43;;;;;;;23.25;11.05;;;9.80;99.90;;;;;;5071190;28;20027;-54
2024/02/05 01:45:09;;;;;;;17.58;10.35;;;9.80;99.90;;;;;;5067534;28;20371;-53
2024/02/05 01:47:37;;;;;;;16.40;9.25;;;9.80;99.90;;;;;;5070497;28;20031;-53
2024/02/05 01:50:12;;;;;;;18.48;9.60;;;9.80;99.90;;;;;;5068641;28;20031;-53
2024/02/05 01:52:45;;;;;;;18.30;9.10;;;9.80;99.90;;;;;;5067204;28;20013;-53
2024/02/05 01:55:16;;;;;;;19.95;9.70;;;9.80;99.90;;;;;;5046386;28;20025;-54
2024/02/05 01:57:42;;;;;;;19.63;9.70;;;9.80;99.90;;;;;;5066081;28;20428;-54
2024/02/05 02:00:10;;;;;;;18.90;9.32;;;9.80;99.90;;;;;;5066205;28;20415;-54
2024/02/05 02:02:46;;;;;;;15.50;8.75;;;9.70;99.90;;;;;;5066987;28;20108;-54
2024/02/05 02:05:13;;;;;;;25.08;9.80;;;9.80;99.90;;;;;;5067667;28;20020;-54
2024/02/05 02:07:39;;;;;;;18.67;9.45;;;9.80;99.90;;;;;;5075688;28;20012;-54
2024/02/05 02:10:05;;;;;;;13.45;8.50;;;9.80;99.90;;;;;;5067247;28;20032;-53
2024/02/05 02:12:30;;;;;;;16.73;8.88;;;9.80;99.90;;;;;;5066764;28;20422;-54
2024/02/05 02:14:56;;;;;;;20.45;9.07;;;9.80;99.90;;;;;;5070937;28;20032;-51
2024/02/05 02:17:24;;;;;;;16.38;8.45;;;9.80;99.90;;;;;;5067179;28;20086;-52
2024/02/05 02:19:51;;;;;;;16.60;8.73;;;9.80;99.90;;;;;;5068334;28;20065;-54
2024/02/05 02:22:48;;;;;;;18.48;8.65;;;9.80;99.90;;;;;;5065151;28;20136;-53
2024/02/05 02:25:14;;;;;;;14.88;7.70;;;9.70;99.90;;;;;;5067041;28;20036;-53
2024/02/05 02:27:41;;;;;;;14.93;7.75;;;9.80;99.90;;;;;;5066643;28;20402;-55
2024/02/05 02:30:08;;;;;;;22.58;8.95;;;9.80;99.90;;;;;;5070707;28;20032;-54
2024/02/05 02:32:38;;;;;;;19.80;7.82;;;9.70;99.90;;;;;;5066653;28;20024;-55
2024/02/05 02:35:41;;;;;;;11.52;7.18;;;9.70;99.90;;;;;;5070641;28;20394;-54
2024/02/05 02:38:17;;;;;;;20.30;9.10;;;9.70;99.90;;;;;;5068551;28;20109;-53
2024/02/05 02:40:44;;;;;;;17.08;8.95;;;9.70;99.90;;;;;;5069344;28;20054;-53
2024/02/05 02:43:10;;;;;;;19.52;8.82;;;9.70;99.90;;;;;;5066221;28;20028;-51
2024/02/05 02:45:36;;;;;;;14.13;8.15;;;9.70;99.90;;;;;;5070523;28;20487;-50
2024/02/05 02:48:02;;;;;;;15.10;8.75;;;9.70;99.90;;;;;;5066624;28;20020;-51
2024/02/05 02:50:27;;;;;;;13.13;7.07;;;9.70;99.90;;;;;;5066448;28;20078;-54
2024/02/05 02:52:53;;;;;;;12.15;7.10;;;9.70;99.90;;;;;;5066306;28;20163;-50
2024/02/05 02:55:19;;;;;;;13.35;7.63;;;9.70;99.90;;;;;;5065388;28;20047;-51
2024/02/05 02:57:44;;;;;;;16.27;7.90;;;9.70;99.90;;;;;;5069940;28;20034;-52
2024/02/05 03:00:12;;;;;;;17.45;8.88;;;9.70;99.90;;;;;;5066521;28;20032;-50
2024/02/05 03:02:38;;;;;;;14.10;7.25;;;9.70;99.90;;;;;;5066142;28;20108;-53
2024/02/05 03:05:04;;;;;;;17.02;7.65;;;9.70;99.90;;;;;;5066352;28;20016;-53
2024/02/05 03:07:34;;;;;;;11.82;7.18;;;9.70;99.90;;;;;;5067889;28;20185;-53
2024/02/05 03:10:00;;;;;;;16.38;9.07;;;9.70;99.90;;;;;;5066962;28;20055;-54
2024/02/05 03:12:26;;;;;;;17.58;8.02;;;9.70;99.90;;;;;;5069784;28;20032;-53
2024/02/05 03:14:51;;;;;;;14.75;7.57;;;9.70;99.90;;;;;;5066521;28;20032;-53
2024/02/05 03:17:17;;;;;;;21.70;7.97;;;9.70;99.90;;;;;;5068435;28;20063;-52
2024/02/05 03:19:43;;;;;;;17.52;7.78;;;9.70;99.90;;;;;;5069599;28;20039;-54
2024/02/05 03:22:09;;;;;;;18.05;7.07;;;9.60;99.90;;;;;;5066218;28;20392;-53
2024/02/05 03:24:34;;;;;;;13.30;8.00;;;9.70;99.90;;;;;;5068622;28;20047;-51
2024/02/05 03:27:00;;;;;;;19.08;8.02;;;9.70;99.90;;;;;;5066668;28;20032;-53
2024/02/05 03:29:25;;;;;;;12.75;7.93;;;9.70;99.90;;;;;;5071104;28;20020;-54
2024/02/05 03:31:51;;;;;;;21.40;8.65;;;9.70;99.90;;;;;;5070292;28;20035;-54
2024/02/05 03:34:17;;;;;;;18.35;8.77;;;9.60;99.90;;;;;;5069994;28;20513;-54
2024/02/05 03:36:42;;;;;;;19.45;8.55;;;9.70;99.90;;;;;;5070102;28;20016;-54
2024/02/05 03:39:09;;;;;;;25.73;9.93;;;9.70;99.90;;;;;;5073626;28;20028;-55
2024/02/05 03:41:34;;;;;;;23.48;9.68;;;9.70;99.90;;;;;;5070021;28;20028;-55
2024/02/05 03:44:00;;;;;;;26.77;9.88;;;9.60;99.90;;;;;;5068703;28;20021;-55
2024/02/05 03:46:25;;;;;;;19.98;9.80;;;9.60;99.90;;;;;;5069191;28;20028;-54
2024/02/05 03:48:52;;;;;;;27.30;11.32;;;9.60;99.90;;;;;;5069706;28;20040;-55
2024/02/05 03:51:18;;;;;;;27.23;12.07;;;9.60;99.90;;;;;;5069442;28;20086;-54
2024/02/05 03:53:43;;;;;;;27.08;11.30;;;9.60;99.90;;;;;;5069521;28;20123;-54
2024/02/05 03:56:11;;;;;;;23.77;11.05;;;9.60;99.90;;;;;;5069342;28;20501;-54
2024/02/05 03:58:37;;;;;;;29.30;13.20;;;9.70;99.90;;;;;;5069531;28;20032;-54
2024/02/05 04:01:04;;;;;;;30.42;11.93;;;9.60;99.90;;;;;;5071536;28;20436;-54
2024/02/05 04:03:29;;;;;;;27.98;12.18;;;9.60;99.90;;;;;;5081082;28;20469;-54
2024/02/05 04:05:56;;;;;;;30.17;12.98;;;9.60;99.90;;;;;;5078269;28;20032;-55
2024/02/05 04:08:22;;;;;;;41.47;13.77;;;9.60;99.90;;;;;;5079205;28;20050;-54
2024/02/05 04:10:47;;;;;;;37.00;14.93;;;9.60;99.90;;;;;;5078348;28;20099;-54
2024/02/05 04:13:13;;;;;;;35.35;14.85;;;9.60;99.90;;;;;;5077973;28;20013;-55
2024/02/05 04:15:39;;;;;;;33.53;14.88;;;9.60;99.90;;;;;;5076609;28;20107;-54
2024/02/05 04:18:05;;;;;;;39.80;16.17;;;9.60;99.90;;;;;;5069122;28;20451;-51
2024/02/05 04:20:31;;;;;;;37.15;16.63;;;9.60;99.90;;;;;;5048463;28;20123;-54
2024/02/05 04:22:56;;;;;;;35.63;16.48;;;9.60;99.90;;;;;;5068416;28;20112;-55
2024/02/05 04:25:22;;;;;;;41.45;15.68;;;9.60;99.90;;;;;;5069518;28;20033;-54
2024/02/05 04:27:48;;;;;;;42.17;17.48;;;9.60;99.90;;;;;;5071392;28;20085;-54
2024/02/05 04:30:16;;;;;;;31.75;15.32;;;9.60;99.90;;;;;;5071118;28;20021;-55
2024/02/05 04:32:41;;;;;;;38.25;16.50;;;9.60;99.90;;;;;;5066551;28;20092;-55
2024/02/05 04:35:08;;;;;;;42.20;15.27;;;9.60;99.90;;;;;;5068354;28;20025;-55
2024/02/05 04:37:34;;;;;;;34.65;13.65;;;9.50;99.90;;;;;;5068711;28;20032;-55
2024/02/05 04:39:59;;;;;;;33.55;14.77;;;9.50;99.90;;;;;;5067551;28;20036;-55
2024/02/05 04:42:25;;;;;;;38.45;14.68;;;9.50;99.90;;;;;;5068207;28;20058;-55
2024/02/05 04:44:50;;;;;;;36.05;14.75;;;9.50;99.90;;;;;;5068227;28;20020;-55
2024/02/05 04:47:16;;;;;;;37.95;14.32;;;9.50;99.90;;;;;;5068374;28;20099;-55
2024/02/05 04:49:47;;;;;;;29.63;13.20;;;9.50;99.90;;;;;;5068097;28;20366;-56
2024/02/05 04:52:12;;;;;;;36.78;14.18;;;9.50;99.90;;;;;;5066127;28;20027;-55
2024/02/05 04:54:38;;;;;;;33.30;13.38;;;9.50;99.90;;;;;;5068263;28;20028;-54
2024/02/05 04:57:04;;;;;;;35.90;14.27;;;9.50;99.90;;;;;;5068330;28;20025;-55
2024/02/05 04:59:30;;;;;;;33.00;14.20;;;9.50;99.90;;;;;;5068073;28;20109;-54
2024/02/05 05:01:55;;;;;;;37.65;12.90;;;9.40;99.90;;;;;;5067777;28;20048;-56
2024/02/05 05:04:22;;;;;;;35.00;14.05;;;9.50;99.90;;;;;;5067318;28;20050;-55
2024/02/05 05:06:48;;;;;;;38.80;13.95;;;9.50;99.90;;;;;;5068109;28;20205;-55
2024/02/05 05:09:13;;;;;;;43.08;15.75;;;9.50;99.90;;;;;;5068738;28;20060;-55
2024/02/05 05:11:39;;;;;;;37.67;14.02;;;9.50;99.90;;;;;;5068550;28;20021;-55
2024/02/05 05:14:04;;;;;;;36.30;15.38;;;9.50;99.90;;;;;;5070526;28;20381;-54
2024/02/05 05:16:30;;;;;;;37.60;16.65;;;9.40;99.90;;;;;;5068273;28;20032;-55
2024/02/05 05:19:01;;;;;;;48.80;17.15;;;9.40;99.90;;;;;;5067972;28;20025;-54
2024/02/05 05:21:27;;;;;;;50.65;18.70;;;9.50;99.90;;;;;;5067885;28;20078;-56
2024/02/05 05:23:53;;;;;;;43.90;19.48;;;9.50;99.90;;;;;;5069704;28;20024;-54
2024/02/05 05:26:23;;;;;;;52.33;18.10;;;9.50;99.90;;;;;;5069914;28;20021;-55
2024/02/05 05:28:49;;;;;;;68.80;20.23;;;9.50;99.90;;;;;;5067575;28;20018;-54
2024/02/05 05:31:18;;;;;;;61.72;22.83;;;9.50;99.90;;;;;;5067986;28;20031;-54
2024/02/05 05:33:47;;;;;;;69.88;21.65;;;9.40;99.90;;;;;;5067505;28;20286;-55
2024/02/05 05:36:12;;;;;;;65.18;20.13;;;9.40;99.90;;;;;;5060456;28;20031;-54
2024/02/05 05:38:38;;;;;;;70.53;22.02;;;9.40;99.90;;;;;;5066042;28;20512;-53
2024/02/05 05:41:04;;;;;;;53.58;21.13;;;9.40;99.90;;;;;;5066164;28;20028;-55
2024/02/05 05:43:30;;;;;;;79.15;21.40;;;9.40;99.90;;;;;;5067441;28;20028;-55
2024/02/05 05:45:56;;;;;;;84.97;23.10;;;9.30;99.90;;;;;;5069562;28;20029;-54
2024/02/05 05:48:22;;;;;;;67.72;21.02;;;9.40;99.90;;;;;;5067112;28;20028;-57
2024/02/05 05:50:50;;;;;;;71.25;21.27;;;9.40;99.90;;;;;;5066960;28;20152;-57
2024/02/05 05:53:16;;;;;;;67.63;23.90;;;9.40;99.90;;;;;;5066700;28;20094;-56
2024/02/05 05:55:42;;;;;;;61.72;21.92;;;9.30;99.90;;;;;;5069345;28;20024;-56
2024/02/05 05:58:08;;;;;;;91.28;23.63;;;9.30;99.90;;;;;;5067318;28;20028;-57
2024/02/05 06:00:33;;;;;;;66.75;21.67;;;9.30;99.90;;;;;;5067147;28;20074;-57
2024/02/05 06:03:00;;;;;;;60.30;22.02;;;9.30;99.90;;;;;;5065423;28;20028;-56
2024/02/05 06:05:26;;;;;;;64.47;22.70;;;9.30;99.90;;;;;;5067005;28;20385;-57
2024/02/05 06:07:51;;;;;;;67.22;22.92;;;9.30;99.90;;;;;;5067152;28;20159;-57
2024/02/05 06:10:17;;;;;;;68.03;22.33;;;9.30;99.90;;;;;;5067313;28;20017;-56
2024/02/05 06:12:44;;;;;;;80.40;22.63;;;9.30;99.90;;;;;;5066953;28;20088;-56
2024/02/05 06:15:11;;;;;;;77.63;21.90;;;9.30;99.90;;;;;;5069129;28;20017;-56
2024/02/05 06:17:37;;;;;;;75.30;23.15;;;9.30;99.90;;;;;;5066990;28;20047;-56
2024/02/05 06:20:05;;;;;;;61.30;20.33;;;9.30;99.90;;;;;;5065652;28;20039;-56
2024/02/05 06:22:32;;;;;;;79.03;21.52;;;9.30;99.90;;;;;;5066462;28;20028;-56
2024/02/05 06:24:57;;;;;;;74.53;22.17;;;9.30;99.90;;;;;;5066576;28;20025;-56
2024/02/05 06:27:23;;;;;;;74.65;19.75;;;9.30;99.90;;;;;;5066886;28;20051;-56
2024/02/05 06:29:50;;;;;;;91.70;22.50;;;9.30;99.90;;;;;;5066697;28;20028;-55
2024/02/05 06:32:15;;;;;;;84.30;22.85;;;9.20;99.90;;;;;;5064973;28;20055;-54
2024/02/05 06:34:41;;;;;;;71.30;22.17;;;9.20;99.90;;;;;;5066705;28;20482;-55
2024/02/05 06:37:07;;;;;;;82.78;21.98;;;9.20;99.90;;;;;;5068453;28;20391;-56
2024/02/05 06:39:32;;;;;;;84.10;21.27;;;9.20;99.90;;;;;;5067138;28;20058;-56
2024/02/05 06:41:58;;;;;;;84.32;23.90;;;9.20;99.90;;;;;;5068213;28;20025;-57
2024/02/05 06:44:24;;;;;;;93.82;23.55;;;9.20;99.90;;;;;;5066352;28;20492;-56
2024/02/05 06:46:49;;;;;;;76.88;19.73;;;9.20;99.90;;;;;;5066527;28;20434;-57
2024/02/05 06:49:15;;;;;;;70.03;20.05;;;9.20;99.90;;;;;;5066887;28;20048;-56
2024/02/05 06:51:41;;;;;;;89.10;22.75;;;9.10;99.90;;;;;;5066963;28;20015;-56
2024/02/05 06:54:07;;;;;;;72.53;20.27;;;9.20;99.90;;;;;;5064952;28;20308;-56
2024/02/05 06:56:33;;;;;;;92.15;23.48;;;9.10;99.90;;;;;;5066580;28;20024;-57
2024/02/05 06:58:59;;;;;;;86.68;22.17;;;9.10;99.90;;;;;;5066525;28;20021;-57
2024/02/05 07:01:26;;;;;;;75.25;21.45;;;9.10;99.90;;;;;;5067687;28;20327;-57
2024/02/05 07:03:52;;;;;;;79.93;22.58;;;9.10;99.90;;;;;;5068586;28;20429;-57
2024/02/05 07:06:17;;;;;;;77.95;20.88;;;9.10;99.90;;;;;;5071710;28;20101;-57
2024/02/05 07:08:45;;;;;;;86.22;21.30;;;9.10;99.90;;;;;;5071636;28;20017;-57
2024/02/05 07:11:11;;;;;;;91.72;22.73;;;9.10;99.90;;;;;;5070037;28;20513;-57
2024/02/05 07:13:38;;;;;;;63.10;20.00;;;9.10;99.90;;;;;;5070715;28;20107;-57
2024/02/05 07:16:06;;;;;;;75.10;21.80;;;9.10;99.90;;;;;;5071139;28;20073;-57
2024/02/05 07:18:31;;;;;;;78.85;22.83;;;9.10;99.90;;;;;;5071273;28;20206;-58
2024/02/05 07:21:04;;;;;;;90.85;23.40;;;9.10;99.90;;;;;;5069402;28;20713;-57
2024/02/05 07:23:30;;;;;;;80.03;21.65;;;9.10;99.90;;;;;;5070702;28;20016;-57
2024/02/05 07:25:56;;;;;;;62.15;20.55;;;9.00;99.90;;;;;;5070009;28;20069;-58
2024/02/05 07:28:22;;;;;;;78.38;21.85;;;9.00;99.90;;;;;;5069922;28;20043;-58
2024/02/05 07:30:48;;;;;;;77.43;21.38;;;9.00;99.90;;;;;;5070333;28;20091;-57
2024/02/05 07:33:14;;;;;;;79.88;22.45;;;9.00;99.90;;;;;;5071504;28;20385;-57
2024/02/05 07:35:39;;;;;;;106.28;26.23;;;9.00;99.90;;;;;;5069519;28;20460;-58
2024/02/05 07:38:05;;;;;;;91.53;22.95;;;9.00;99.90;;;;;;5068922;28;20108;-58
2024/02/05 07:40:30;;;;;;;102.38;22.35;;;9.00;99.90;;;;;;5070014;28;20112;-57
2024/02/05 07:42:56;;;;;;;81.45;22.02;;;9.00;99.90;;;;;;5070827;28;20056;-58
2024/02/05 07:45:22;;;;;;;102.80;23.80;;;9.00;99.90;;;;;;5069280;28;20016;-57
2024/02/05 07:47:47;;;;;;;85.72;22.20;;;9.00;99.90;;;;;;5069352;28;20474;-56
2024/02/05 07:50:13;;;;;;;89.38;23.27;;;9.00;99.90;;;;;;5068373;28;20012;-56
2024/02/05 07:52:38;;;;;;;70.47;20.90;;;9.00;99.90;;;;;;5069268;28;20535;-57
2024/02/05 07:55:04;;;;;;;80.35;22.85;;;8.90;99.90;;;;;;5069157;28;20501;-54
2024/02/05 07:57:30;;;;;;;85.78;21.70;;;8.90;99.90;;;;;;5069647;28;20052;-57
2024/02/05 07:59:57;;;;;;;79.43;21.48;;;8.90;99.90;;;;;;5070255;28;20078;-57
2024/02/05 08:02:25;;;;;;;75.75;21.88;;;8.90;99.90;;;;;;5067935;28;20024;-57
2024/02/05 08:04:51;;;;;;;82.57;21.58;;;8.90;99.90;;;;;;5069524;28;20043;-57
2024/02/05 08:07:17;;;;;;;97.82;26.05;;;9.00;99.90;;;;;;5069956;28;20040;-57
2024/02/05 08:09:43;;;;;;;73.93;23.17;;;9.00;99.90;;;;;;5069471;28;20509;-57
2024/02/05 08:12:08;;;;;;;100.25;22.20;;;9.00;99.90;;;;;;5067930;28;20048;-57
2024/02/05 08:14:34;;;;;;;81.97;23.08;;;9.00;99.90;;;;;;5066984;28;20423;-57
2024/02/05 08:17:00;;;;;;;80.57;21.23;;;9.00;99.90;;;;;;5069349;28;20104;-57
2024/02/05 08:19:25;;;;;;;82.93;24.10;;;8.90;99.90;;;;;;5069111;28;20020;-57
2024/02/05 08:21:51;;;;;;;77.72;21.35;;;8.90;99.90;;;;;;5069192;28;20038;-57
2024/02/05 08:24:18;;;;;;;78.93;21.98;;;8.90;99.90;;;;;;5069511;28;20082;-57
2024/02/05 08:26:43;;;;;;;67.60;21.75;;;8.90;99.90;;;;;;5069249;28;20490;-57
2024/02/05 08:29:09;;;;;;;77.30;22.42;;;8.90;99.90;;;;;;5070016;28;20027;-57
2024/02/05 08:31:36;;;;;;;84.80;23.40;;;8.90;99.90;;;;;;5069442;28;20028;-57
2024/02/05 08:34:02;;;;;;;72.68;21.38;;;8.90;99.90;;;;;;5068661;28;20111;-57
2024/02/05 08:36:28;;;;;;;65.38;18.85;;;8.80;99.90;;;;;;5069613;28;20474;-57
2024/02/05 08:38:54;;;;;;;83.38;22.45;;;8.80;99.90;;;;;;5068863;28;20141;-57
2024/02/05 08:41:20;;;;;;;72.40;20.95;;;8.80;99.90;;;;;;5068992;28;20559;-56
2024/02/05 08:43:46;;;;;;;73.43;20.45;;;8.80;99.90;;;;;;5067586;28;20274;-57
2024/02/05 08:46:12;;;;;;;89.50;21.30;;;8.80;99.90;;;;;;5065956;28;20024;-57
2024/02/05 08:48:39;;;;;;;81.65;20.30;;;8.70;99.90;;;;;;5067229;28;20451;-57
2024/02/05 08:51:05;;;;;;;72.97;19.23;;;8.70;99.90;;;;;;5067265;28;20020;-57
2024/02/05 08:53:31;;;;;;;60.05;18.88;;;8.70;99.90;;;;;;5066905;28;20656;-57
2024/02/05 08:55:56;;;;;;;72.97;21.13;;;8.70;99.90;;;;;;5067248;28;20032;-57
2024/02/05 08:58:22;;;;;;;90.18;20.02;;;8.60;99.90;;;;;;5067378;28;20450;-56
2024/02/05 09:00:49;;;;;;;72.38;20.08;;;8.70;99.90;;;;;;5068714;28;20083;-58
2024/02/05 09:03:16;;;;;;;76.82;19.38;;;8.70;99.90;;;;;;5068797;28;20033;-57
2024/02/05 09:05:42;;;;;;;90.07;20.38;;;8.70;99.90;;;;;;5068782;28;20521;-57
2024/02/05 09:08:08;;;;;;;84.10;19.38;;;8.60;99.90;;;;;;5076923;28;20139;-56
2024/02/05 09:10:36;;;;;;;84.53;20.08;;;8.60;99.90;;;;;;5068762;28;20027;-56
2024/02/05 09:13:02;;;;;;;76.68;18.70;;;8.60;99.90;;;;;;5068119;28;20028;-56
2024/02/05 09:15:29;;;;;;;65.38;18.70;;;8.60;99.90;;;;;;5068432;28;20066;-56
2024/02/05 09:17:55;;;;;;;65.38;18.30;;;8.60;99.90;;;;;;5076679;28;20031;-56
2024/02/05 09:20:21;;;;;;;57.67;17.10;;;8.50;99.90;;;;;;5067022;28;20017;-56
2024/02/05 09:22:48;;;;;;;64.05;18.38;;;8.60;99.90;;;;;;5067866;28;20016;-55
2024/02/05 09:25:14;;;;;;;99.20;20.42;;;8.60;99.90;;;;;;5082986;28;20020;-57
2024/02/05 09:27:39;;;;;;;86.75;20.17;;;8.60;99.90;;;;;;5075076;28;20398;-56
2024/02/05 09:30:06;;;;;;;85.97;21.88;;;8.60;99.90;;;;;;5068836;28;20023;-54
2024/02/05 09:32:33;;;;;;;81.03;18.75;;;8.50;99.90;;;;;;5068156;28;20077;-54
2024/02/05 09:34:58;;;;;;;79.40;18.83;;;8.50;99.90;;;;;;5076332;28;20050;-55
2024/02/05 09:37:24;;;;;;;65.13;18.85;;;8.50;99.90;;;;;;5068201;28;20096;-54
2024/02/05 09:39:50;;;;;;;68.45;18.27;;;8.60;99.90;;;;;;5067536;28;20044;-54
2024/02/05 09:42:16;;;;;;;74.80;19.83;;;8.60;99.90;;;;;;5067615;28;20028;-55
2024/02/05 09:44:45;;;;;;;66.28;18.33;;;8.60;99.90;;;;;;5075021;28;20016;-54
2024/02/05 09:47:12;;;;;;;71.38;17.00;;;8.60;99.90;;;;;;5065155;28;20020;-55
2024/02/05 09:49:39;;;;;;;80.32;19.40;;;8.50;99.90;;;;;;5074580;28;20133;-55
2024/02/05 09:52:07;;;;;;;63.28;16.70;;;8.60;99.90;;;;;;5076152;28;20023;-54
2024/02/05 09:54:39;;;;;;;71.45;17.77;;;8.60;99.90;;;;;;5067642;28;20032;-54
2024/02/05 09:57:09;;;;;;;62.60;17.55;;;8.60;99.90;;;;;;5075380;28;20484;-53
2024/02/05 09:59:35;;;;;;;67.37;16.73;;;8.50;99.90;;;;;;5075594;28;20086;-54
2024/02/05 10:02:06;;;;;;;60.20;15.18;;;8.50;99.90;;;;;;5067454;28;20278;-53
2024/02/05 10:04:42;;;;;;;82.93;17.88;;;8.50;99.90;;;;;;5067106;28;20016;-53
2024/02/05 10:07:13;;;;;;;67.13;14.98;;;8.50;99.90;;;;;;5067355;28;20521;-54
2024/02/05 10:09:41;;;;;;;58.78;15.65;;;8.50;99.90;;;;;;5074218;28;20020;-53
2024/02/05 10:12:10;;;;;;;61.50;15.70;;;8.60;99.90;;;;;;5075108;28;20035;-53
2024/02/05 10:14:37;;;;;;;59.08;15.02;;;8.50;99.90;;;;;;5065642;28;20020;-53
2024/02/05 10:17:03;;;;;;;53.90;13.30;;;8.50;99.90;;;;;;5065802;28;20405;-54
2024/02/05 10:19:30;;;;;;;69.15;16.02;;;8.50;99.90;;;;;;5067302;28;20153;-53
2024/02/05 10:21:56;;;;;;;62.30;13.80;;;8.50;99.90;;;;;;5066721;28;20025;-54
2024/02/05 10:24:23;;;;;;;69.70;16.52;;;8.50;99.90;;;;;;5066973;28;20414;-53
2024/02/05 10:26:49;;;;;;;58.58;15.02;;;8.50;99.90;;;;;;5074283;28;20024;-53
2024/02/05 10:29:15;;;;;;;54.85;14.50;;;8.50;99.90;;;;;;5066910;28;20009;-53
2024/02/05 10:31:49;;;;;;;57.75;13.75;;;8.50;99.90;;;;;;5067348;28;20020;-53
2024/02/05 10:34:24;;;;;;;56.55;13.82;;;8.50;99.90;;;;;;5064344;28;20032;-53
2024/02/05 10:36:50;;;;;;;63.15;14.48;;;8.40;99.90;;;;;;5066890;28;20052;-53
2024/02/05 10:39:23;;;;;;;62.22;15.13;;;8.50;99.90;;;;;;5066279;28;20036;-53
2024/02/05 10:41:57;;;;;;;76.55;14.90;;;8.50;99.90;;;;;;5063831;28;20099;-53
2024/02/05 10:44:23;;;;;;;58.13;12.93;;;8.50;99.90;;;;;;5063998;28;20038;-52
2024/02/05 10:46:50;;;;;;;35.83;11.60;;;8.50;99.90;;;;;;5065508;28;20036;-53
2024/02/05 10:49:18;;;;;;;47.72;12.63;;;8.50;99.90;;;;;;5065657;28;20058;-52
2024/02/05 10:51:45;;;;;;;47.17;13.45;;;8.70;99.90;;;;;;5066537;28;20047;-53
2024/02/05 10:54:12;;;;;;;46.03;11.10;;;8.90;99.90;;;;;;5064064;28;20389;-53
2024/02/05 10:56:42;;;;;;;47.88;11.63;;;9.00;99.90;;;;;;5066134;28;20028;-54
2024/02/05 10:59:09;;;;;;;38.13;10.82;;;9.00;99.90;;;;;;5065449;28;20082;-53
2024/02/05 11:01:42;;;;;;;35.33;10.40;;;9.10;99.90;;;;;;5065937;28;20178;-53
2024/02/05 11:04:09;;;;;;;40.03;9.57;;;9.20;99.90;;;;;;5065165;28;20024;-53
2024/02/05 11:06:45;;;;;;;42.55;10.27;;;9.30;99.90;;;;;;5066630;28;20025;-53
2024/02/05 11:09:11;;;;;;;45.22;10.95;;;9.30;99.90;;;;;;5065495;28;20012;-53
2024/02/05 11:11:40;;;;;;;49.97;10.85;;;9.30;99.90;;;;;;5066720;28;20025;-52
2024/02/05 11:14:08;;;;;;;29.70;10.15;;;9.40;99.90;;;;;;5065991;28;20032;-53
2024/02/05 11:16:37;;;;;;;39.35;11.57;;;9.40;99.90;;;;;;5066066;28;20012;-50
2024/02/05 11:19:05;;;;;;;29.80;8.98;;;9.40;99.90;;;;;;5066646;28;20032;-53
2024/02/05 11:21:50;;;;;;;48.95;10.57;;;9.40;99.90;;;;;;5067357;28;20106;-53
2024/02/05 11:24:18;;;;;;;36.88;9.55;;;9.50;99.90;;;;;;5063795;28;20051;-53
2024/02/05 11:26:44;;;;;;;37.30;8.70;;;9.50;99.90;;;;;;5064902;28;20477;-53
2024/02/05 11:29:21;;;;;;;37.08;8.48;;;9.50;99.90;;;;;;5064295;28;20021;-52
2024/02/05 11:31:46;;;;;;;43.95;9.23;;;9.50;99.90;;;;;;5066012;28;20026;-51
2024/02/05 11:34:12;;;;;;;36.03;9.05;;;9.50;99.90;;;;;;5066026;28;20024;-49
2024/02/05 11:36:42;;;;;;;31.30;8.23;;;9.50;99.90;;;;;;5065944;28;20146;-49
2024/02/05 11:39:09;;;;;;;41.75;8.90;;;9.60;99.90;;;;;;5065090;28;20119;-52
2024/02/05 11:41:36;;;;;;;32.13;9.02;;;9.60;99.90;;;;;;5065392;28;20511;-52
2024/02/05 11:44:27;;;;;;;34.50;9.40;;;9.60;99.90;;;;;;5065017;28;20166;-52
2024/02/05 11:46:53;;;;;;;43.90;8.98;;;9.60;99.90;;;;;;5070703;28;20048;-51
2024/02/05 11:49:30;;;;;;;36.05;8.32;;;9.60;99.90;;;;;;5065134;28;20564;-52
2024/02/05 11:51:56;;;;;;;28.92;8.13;;;9.70;99.90;;;;;;5069183;28;20031;-52
2024/02/05 11:54:21;;;;;;;35.42;9.25;;;9.70;99.90;;;;;;5067499;28;20032;-49
2024/02/05 11:56:47;;;;;;;33.17;9.10;;;9.70;99.90;;;;;;5075960;28;20057;-52
2024/02/05 11:59:13;;;;;;;40.58;7.95;;;9.70;99.90;;;;;;5069505;28;20547;-50
2024/02/05 12:01:40;;;;;;;33.53;9.15;;;9.70;99.90;;;;;;5069455;28;20524;-49
2024/02/05 12:04:05;;;;;;;35.58;9.05;;;9.80;99.90;;;;;;5068747;28;20157;-49
2024/02/05 12:06:32;;;;;;;29.88;9.70;;;9.80;99.90;;;;;;5069487;28;20461;-51
2024/02/05 12:08:59;;;;;;;37.97;8.75;;;9.80;99.90;;;;;;5069077;28;20062;-49
2024/02/05 12:11:25;;;;;;;41.67;8.15;;;9.80;99.90;;;;;;5066294;28;20021;-49
2024/02/05 12:14:00;;;;;;;34.38;9.02;;;9.90;99.90;;;;;;5066246;28;20051;-50
2024/02/05 12:16:27;;;;;;;32.95;9.35;;;9.90;99.90;;;;;;5062999;28;20168;-53
2024/02/05 12:18:53;;;;;;;25.55;7.93;;;9.90;99.90;;;;;;5069125;28;20025;-51
2024/02/05 12:21:21;;;;;;;35.08;8.02;;;9.90;99.90;;;;;;5069310;28;20035;-50
2024/02/05 12:23:47;;;;;;;31.73;7.80;;;9.90;99.90;;;;;;5069035;28;20023;-52
2024/02/05 12:26:13;;;;;;;34.22;8.30;;;9.90;99.90;;;;;;5067584;28;20020;-51
2024/02/05 12:28:42;;;;;;;27.67;7.22;;;9.90;99.90;;;;;;5074406;28;20040;-53
2024/02/05 12:31:08;;;;;;;32.95;8.38;;;9.90;99.90;;;;;;5069450;28;20316;-51
2024/02/05 12:33:34;;;;;;;33.85;9.15;;;9.90;99.90;;;;;;5068889;28;20713;-53
2024/02/05 12:36:02;;;;;;;30.80;8.45;;;9.90;99.90;;;;;;5069344;28;20390;-52